Time;durP1;ratioP1;P1;durP2;ratioP2;P2;SDS_P1;SDS_P2;PMS_P1;PMS_P2;Temp;Humidity;BMP_temperature;BMP_pressure;BME280_temperature;BME280_humidity;BME280_pressure;Samples;Min_cycle;Max_cycle;Signal;HPM_P1;HPM_P2
2023/12/29 00:02:08;;;;;;;61.13;35.85;;;7.20;99.90;;;;;;4960530;28;20074;-87
2023/12/29 00:04:35;;;;;;;62.88;34.38;;;7.20;99.90;;;;;;4960521;28;20491;-87
2023/12/29 00:07:03;;;;;;;64.32;35.25;;;7.20;99.90;;;;;;4960340;28;20155;-87
2023/12/29 00:09:29;;;;;;;53.33;33.92;;;7.20;99.90;;;;;;4959828;28;20093;-87
2023/12/29 00:11:55;;;;;;;59.03;33.05;;;7.20;99.90;;;;;;4960147;28;20034;-87
2023/12/29 00:14:26;;;;;;;56.50;33.75;;;7.20;99.90;;;;;;4960324;28;20427;-88
2023/12/29 00:16:57;;;;;;;53.03;32.17;;;7.20;99.90;;;;;;4960147;28;20031;-87
2023/12/29 00:19:23;;;;;;;51.42;30.70;;;7.20;99.90;;;;;;4960124;28;20030;-87
2023/12/29 00:21:49;;;;;;;48.45;30.45;;;7.20;99.90;;;;;;4959967;28;20047;-87
2023/12/29 00:24:16;;;;;;;51.75;31.27;;;7.10;99.90;;;;;;4959947;28;20023;-87
2023/12/29 00:26:43;;;;;;;48.88;29.60;;;7.10;99.90;;;;;;4974665;28;20072;-87
2023/12/29 00:29:15;;;;;;;49.00;30.25;;;7.10;99.90;;;;;;4975878;28;20484;-87
2023/12/29 00:31:41;;;;;;;54.88;31.17;;;7.00;99.90;;;;;;4975771;28;20027;-87
2023/12/29 00:34:08;;;;;;;56.72;32.42;;;7.00;99.90;;;;;;4975769;28;20041;-87
2023/12/29 00:36:35;;;;;;;54.35;32.05;;;6.90;99.90;;;;;;4975641;28;20031;-87
2023/12/29 00:39:01;;;;;;;49.00;29.90;;;6.90;99.90;;;;;;4959813;28;20118;-87
2023/12/29 00:41:28;;;;;;;64.63;33.88;;;6.80;99.90;;;;;;4959697;28;20043;-86
2023/12/29 00:43:54;;;;;;;55.10;35.08;;;6.80;99.90;;;;;;4959701;28;20018;-87
2023/12/29 00:46:21;;;;;;;60.95;35.30;;;6.70;99.90;;;;;;4959812;28;20035;-86
2023/12/29 00:48:47;;;;;;;57.38;33.75;;;6.70;99.90;;;;;;4959584;28;20031;-87
2023/12/29 00:51:13;;;;;;;62.92;34.72;;;6.70;99.90;;;;;;4957445;28;20041;-87
2023/12/29 00:53:40;;;;;;;59.28;33.78;;;6.60;99.90;;;;;;4959647;28;20027;-88
2023/12/29 00:56:11;;;;;;;50.22;29.38;;;6.70;99.90;;;;;;4974787;28;20037;-87
2023/12/29 00:58:40;;;;;;;46.40;30.40;;;6.70;99.90;;;;;;4975113;28;20035;-87
2023/12/29 01:01:08;;;;;;;54.60;30.00;;;6.90;99.90;;;;;;4959137;28;20134;-86
2023/12/29 01:03:35;;;;;;;52.20;31.10;;;6.90;99.90;;;;;;4959357;28;20499;-87
2023/12/29 01:06:01;;;;;;;46.50;30.50;;;6.80;99.90;;;;;;4967984;28;20027;-87
2023/12/29 01:08:28;;;;;;;53.03;31.17;;;6.70;99.90;;;;;;4975315;28;20392;-87
2023/12/29 01:10:54;;;;;;;47.10;30.83;;;6.60;99.90;;;;;;4975206;28;20042;-87
2023/12/29 01:13:21;;;;;;;58.13;31.65;;;6.60;99.90;;;;;;4975494;28;20038;-88
2023/12/29 01:15:47;;;;;;;51.75;30.33;;;6.60;99.90;;;;;;4959151;28;20023;-87
2023/12/29 01:18:14;;;;;;;42.97;28.23;;;6.60;99.90;;;;;;4959153;28;20110;-88
2023/12/29 01:20:41;;;;;;;50.50;28.88;;;6.50;99.90;;;;;;4959121;28;20138;-88
2023/12/29 01:23:07;;;;;;;44.42;28.08;;;6.50;99.90;;;;;;4958999;28;20089;-87
2023/12/29 01:25:34;;;;;;;39.95;25.45;;;6.50;99.90;;;;;;4958709;28;20050;-87
2023/12/29 01:28:00;;;;;;;37.30;25.70;;;6.50;99.90;;;;;;4958889;28;20035;-87
2023/12/29 01:30:26;;;;;;;33.38;24.30;;;6.40;99.90;;;;;;4958915;28;20031;-87
2023/12/29 01:32:53;;;;;;;38.60;24.25;;;6.40;99.90;;;;;;4958797;28;20414;-87
2023/12/29 01:35:19;;;;;;;33.97;23.33;;;6.30;99.90;;;;;;4958847;28;20027;-87
2023/12/29 01:37:45;;;;;;;29.75;22.88;;;6.30;99.90;;;;;;4958965;28;20023;-87
2023/12/29 01:40:12;;;;;;;32.33;23.65;;;6.20;99.90;;;;;;4958759;28;20035;-87
2023/12/29 01:42:39;;;;;;;35.50;23.92;;;6.20;99.90;;;;;;4958908;28;20049;-88
2023/12/29 01:45:12;;;;;;;35.72;24.60;;;6.10;99.90;;;;;;4974781;28;20050;-87
2023/12/29 01:47:38;;;;;;;38.30;24.55;;;6.10;99.90;;;;;;4990880;28;20033;-87
2023/12/29 01:50:08;;;;;;;37.45;23.98;;;6.10;99.90;;;;;;4974998;28;20031;-88
2023/12/29 01:52:35;;;;;;;38.80;23.70;;;6.10;99.90;;;;;;4974490;28;20030;-87
2023/12/29 01:55:01;;;;;;;33.70;22.50;;;6.10;99.90;;;;;;4974883;28;20023;-87
2023/12/29 01:57:28;;;;;;;33.72;23.00;;;6.10;99.90;;;;;;4974431;28;20039;-88
2023/12/29 01:59:57;;;;;;;31.35;21.77;;;6.10;99.90;;;;;;4974538;28;20023;-87
2023/12/29 02:02:24;;;;;;;34.17;21.75;;;6.00;99.90;;;;;;4974269;28;20090;-87
2023/12/29 02:04:50;;;;;;;33.30;22.15;;;5.90;99.90;;;;;;4974416;28;20026;-87
2023/12/29 02:07:18;;;;;;;25.88;20.80;;;5.90;99.90;;;;;;4974050;28;20077;-87
2023/12/29 02:09:46;;;;;;;28.92;20.88;;;5.90;99.90;;;;;;4957893;28;20042;-88
2023/12/29 02:12:12;;;;;;;24.83;20.25;;;5.90;99.90;;;;;;4958220;28;20054;-87
2023/12/29 02:14:39;;;;;;;25.67;19.98;;;5.90;99.90;;;;;;4958132;28;20473;-87
2023/12/29 02:17:11;;;;;;;28.25;20.17;;;5.80;99.90;;;;;;4957993;28;20038;-88
2023/12/29 02:19:44;;;;;;;27.55;20.88;;;5.90;99.90;;;;;;4957819;28;20037;-87
2023/12/29 02:22:14;;;;;;;32.65;21.92;;;5.90;99.90;;;;;;4973986;28;20042;-87
2023/12/29 02:24:44;;;;;;;35.42;22.75;;;6.00;99.90;;;;;;4974812;28;20031;-90
2023/12/29 02:27:29;;;;;;;29.27;20.15;;;5.90;99.90;;;;;;4974474;28;20038;-87
2023/12/29 02:30:15;;;;;;;31.17;20.48;;;5.80;99.90;;;;;;4958042;28;20034;-88
2023/12/29 02:32:44;;;;;;;29.58;20.98;;;5.80;99.90;;;;;;4974025;28;20130;-87
2023/12/29 02:35:23;;;;;;;31.80;21.15;;;5.70;99.90;;;;;;4958925;28;20027;-87
2023/12/29 02:37:50;;;;;;;33.67;21.88;;;5.70;99.90;;;;;;4973771;28;20030;-87
2023/12/29 02:40:17;;;;;;;29.98;20.75;;;5.70;99.90;;;;;;4973625;28;20015;-88
2023/12/29 02:42:47;;;;;;;37.25;21.88;;;5.70;99.90;;;;;;4957928;28;20042;-87
2023/12/29 02:45:15;;;;;;;30.95;21.00;;;5.70;99.90;;;;;;4958042;28;20027;-87
2023/12/29 02:47:45;;;;;;;30.35;21.10;;;5.70;99.90;;;;;;4957785;28;20122;-87
2023/12/29 02:50:12;;;;;;;30.70;20.90;;;5.60;99.90;;;;;;4957941;28;20030;-88
2023/12/29 02:52:38;;;;;;;28.20;20.15;;;5.60;99.90;;;;;;4957840;28;20038;-87
2023/12/29 02:55:05;;;;;;;28.17;19.98;;;5.60;99.90;;;;;;4957846;28;20054;-87
2023/12/29 02:57:34;;;;;;;29.55;19.95;;;5.60;99.90;;;;;;4957676;28;20463;-87
2023/12/29 03:00:01;;;;;;;30.33;20.60;;;5.50;99.90;;;;;;4973778;28;20038;-87
2023/12/29 03:02:28;;;;;;;28.25;20.20;;;5.40;99.90;;;;;;4973844;28;20389;-88
2023/12/29 03:04:58;;;;;;;32.92;21.48;;;5.30;99.90;;;;;;4973835;28;20484;-88
2023/12/29 03:07:24;;;;;;;33.95;23.20;;;5.20;99.90;;;;;;4973634;28;20035;-88
2023/12/29 03:09:51;;;;;;;49.90;27.92;;;5.10;99.90;;;;;;4973553;28;20571;-87
2023/12/29 03:12:18;;;;;;;55.60;31.50;;;5.20;99.90;;;;;;4986793;28;20031;-86
2023/12/29 03:14:46;;;;;;;60.92;32.30;;;5.20;99.90;;;;;;4986629;28;20031;-87
2023/12/29 03:17:13;;;;;;;54.60;31.33;;;5.20;99.90;;;;;;4954405;29;20063;-87
2023/12/29 03:19:43;;;;;;;56.42;30.45;;;5.10;99.90;;;;;;4970916;28;20432;-87
2023/12/29 03:22:09;;;;;;;59.35;32.08;;;5.10;99.90;;;;;;4957998;29;20042;-87
2023/12/29 03:24:41;;;;;;;66.50;34.40;;;5.10;99.90;;;;;;4957958;29;20027;-88
2023/12/29 03:27:08;;;;;;;56.63;34.80;;;5.10;99.90;;;;;;4961214;28;20062;-88
2023/12/29 03:29:36;;;;;;;62.65;34.95;;;5.10;99.90;;;;;;4960058;28;20047;-87
2023/12/29 03:32:03;;;;;;;59.10;32.45;;;5.10;99.90;;;;;;4961260;28;20121;-88
2023/12/29 03:34:33;;;;;;;52.85;30.85;;;5.00;99.90;;;;;;4960967;28;20027;-87
2023/12/29 03:37:00;;;;;;;53.05;31.23;;;5.00;99.90;;;;;;4975022;28;20507;-87
2023/12/29 03:39:27;;;;;;;48.10;30.05;;;5.00;99.90;;;;;;4977084;28;20031;-87
2023/12/29 03:41:53;;;;;;;49.30;29.80;;;5.00;99.90;;;;;;4976724;28;20043;-87
2023/12/29 03:44:23;;;;;;;50.10;30.60;;;5.00;99.90;;;;;;4960788;28;20031;-87
2023/12/29 03:46:49;;;;;;;44.10;28.73;;;5.00;99.90;;;;;;4973406;28;20507;-88
2023/12/29 03:49:17;;;;;;;42.65;27.52;;;5.00;99.90;;;;;;4976762;28;20027;-87
2023/12/29 03:51:43;;;;;;;43.92;27.02;;;4.90;99.90;;;;;;4976770;28;20034;-87
2023/12/29 03:54:09;;;;;;;47.65;27.10;;;4.90;99.90;;;;;;4976741;28;20023;-88
2023/12/29 03:56:36;;;;;;;48.30;27.67;;;5.00;99.90;;;;;;4976717;28;20495;-87
2023/12/29 03:59:02;;;;;;;50.05;28.40;;;5.00;99.90;;;;;;4976340;28;20472;-88
2023/12/29 04:01:29;;;;;;;45.83;26.95;;;5.00;99.90;;;;;;4976736;28;20042;-86
2023/12/29 04:03:55;;;;;;;45.35;26.00;;;5.00;99.90;;;;;;4976863;28;20476;-88
2023/12/29 04:06:22;;;;;;;40.40;26.60;;;5.00;99.90;;;;;;4976638;28;20034;-88
2023/12/29 04:08:49;;;;;;;45.67;25.80;;;5.00;99.90;;;;;;4975963;28;20030;-87
2023/12/29 04:11:15;;;;;;;51.42;26.50;;;5.00;99.90;;;;;;4960514;28;20043;-88
2023/12/29 04:13:41;;;;;;;50.15;25.98;;;5.00;99.90;;;;;;4960397;28;20033;-88
2023/12/29 04:16:08;;;;;;;49.47;25.67;;;4.90;99.90;;;;;;4960215;28;20085;-87
2023/12/29 04:18:34;;;;;;;42.35;24.27;;;4.90;99.90;;;;;;4960130;28;20022;-88
2023/12/29 04:21:01;;;;;;;45.78;24.95;;;4.90;99.90;;;;;;4960080;28;20130;-87
2023/12/29 04:23:27;;;;;;;53.63;28.23;;;4.90;99.90;;;;;;4960033;28;20362;-86
2023/12/29 04:26:00;;;;;;;68.82;31.88;;;4.90;99.90;;;;;;4960097;28;20567;-87
2023/12/29 04:28:27;;;;;;;53.47;27.70;;;4.90;99.90;;;;;;4959951;28;20035;-85
2023/12/29 04:30:55;;;;;;;67.05;31.75;;;4.90;99.90;;;;;;4959907;28;20027;-86
2023/12/29 04:33:21;;;;;;;57.92;31.60;;;4.80;99.90;;;;;;4976067;28;20415;-88
2023/12/29 04:35:50;;;;;;;61.70;32.97;;;4.70;99.90;;;;;;4975845;28;20057;-88
2023/12/29 04:38:18;;;;;;;64.78;33.53;;;4.70;99.90;;;;;;4976118;28;20037;-88
2023/12/29 04:40:46;;;;;;;67.40;34.00;;;4.60;99.90;;;;;;4975606;28;20031;-84
2023/12/29 04:43:13;;;;;;;66.05;34.38;;;4.50;99.90;;;;;;4975192;28;20034;-84
2023/12/29 04:45:40;;;;;;;59.40;33.00;;;4.50;99.90;;;;;;4977720;28;20023;-83
2023/12/29 04:48:06;;;;;;;58.65;32.88;;;4.50;99.90;;;;;;4975251;28;20030;-85
2023/12/29 04:50:36;;;;;;;56.92;31.83;;;4.50;99.90;;;;;;4963767;28;20117;-85
2023/12/29 04:53:02;;;;;;;58.75;33.28;;;4.50;99.90;;;;;;4975726;28;20148;-85
2023/12/29 04:55:29;;;;;;;52.65;31.55;;;4.50;99.90;;;;;;4975618;28;20054;-86
2023/12/29 04:57:55;;;;;;;62.60;33.58;;;4.50;99.90;;;;;;4975657;28;20035;-86
2023/12/29 05:00:21;;;;;;;57.15;32.88;;;4.50;99.90;;;;;;4975609;28;20038;-89
2023/12/29 05:02:47;;;;;;;58.08;32.53;;;4.50;99.90;;;;;;4975693;28;20108;-89
2023/12/29 05:05:14;;;;;;;58.72;31.33;;;4.40;99.90;;;;;;4975698;28;20124;-87
2023/12/29 05:07:41;;;;;;;60.25;31.48;;;4.40;99.90;;;;;;4975519;28;20031;-88
2023/12/29 05:10:08;;;;;;;60.05;31.40;;;4.40;99.90;;;;;;4975203;28;20497;-88
2023/12/29 05:12:34;;;;;;;58.15;32.53;;;4.40;99.90;;;;;;4959352;28;20035;-88
2023/12/29 05:15:00;;;;;;;60.58;31.23;;;4.30;99.90;;;;;;4959052;28;20106;-86
2023/12/29 05:17:27;;;;;;;54.63;31.33;;;4.30;99.90;;;;;;4959013;28;20059;-85
2023/12/29 05:19:56;;;;;;;56.92;32.65;;;4.40;99.90;;;;;;4959042;28;20030;-85
2023/12/29 05:22:23;;;;;;;55.72;30.85;;;4.40;99.90;;;;;;4958892;28;20514;-85
2023/12/29 05:24:53;;;;;;;56.20;31.55;;;4.40;99.90;;;;;;4975219;28;20026;-86
2023/12/29 05:27:19;;;;;;;51.20;31.92;;;4.60;99.90;;;;;;4990441;28;20031;-88
2023/12/29 05:29:46;;;;;;;54.67;31.02;;;4.60;99.90;;;;;;4974947;28;20027;-87
2023/12/29 05:32:12;;;;;;;55.10;30.40;;;4.60;99.90;;;;;;4964721;28;20511;-93
2023/12/29 05:34:39;;;;;;;53.95;30.25;;;4.60;99.90;;;;;;4958911;28;20030;-90
2023/12/29 05:37:06;;;;;;;49.85;30.55;;;4.50;99.90;;;;;;4959003;28;20089;-86
2023/12/29 05:39:35;;;;;;;51.50;29.70;;;4.50;99.90;;;;;;4958767;28;20022;-90
2023/12/29 05:42:02;;;;;;;44.22;29.08;;;4.50;99.90;;;;;;4974507;28;20042;-86
2023/12/29 05:44:29;;;;;;;47.55;28.75;;;4.50;99.90;;;;;;4974436;28;20019;-88
2023/12/29 05:46:56;;;;;;;49.28;29.73;;;4.50;99.90;;;;;;4959019;28;20395;-88
2023/12/29 05:49:26;;;;;;;49.58;28.80;;;4.50;99.90;;;;;;4958534;28;20037;-88
2023/12/29 05:51:52;;;;;;;46.85;27.75;;;4.60;99.90;;;;;;4958658;28;20027;-87
2023/12/29 05:54:18;;;;;;;49.35;28.67;;;4.60;99.90;;;;;;4958612;28;20117;-87
2023/12/29 05:56:45;;;;;;;41.35;26.73;;;4.70;99.90;;;;;;4958524;28;20030;-87
2023/12/29 05:59:11;;;;;;;46.67;28.40;;;4.60;99.90;;;;;;4958274;28;20476;-88
2023/12/29 06:01:37;;;;;;;48.80;27.73;;;4.70;99.90;;;;;;4958310;28;20086;-88
2023/12/29 06:04:04;;;;;;;46.97;28.30;;;4.70;99.90;;;;;;4958203;28;20026;-84
2023/12/29 06:06:30;;;;;;;42.47;28.17;;;4.70;99.90;;;;;;4958273;28;20037;-88
2023/12/29 06:09:00;;;;;;;48.20;27.90;;;4.80;99.90;;;;;;4957912;28;20031;-88
2023/12/29 06:11:27;;;;;;;45.15;28.23;;;4.80;99.90;;;;;;4958235;28;20031;-85
2023/12/29 06:13:54;;;;;;;41.65;27.73;;;5.00;99.90;;;;;;4958174;28;20377;-85
2023/12/29 06:16:21;;;;;;;46.28;27.40;;;5.10;99.90;;;;;;4958144;28;20069;-85
2023/12/29 06:18:47;;;;;;;44.15;27.55;;;5.20;99.90;;;;;;4958110;28;20023;-85
2023/12/29 06:21:14;;;;;;;42.22;27.08;;;5.40;99.90;;;;;;4957700;28;20039;-85
2023/12/29 06:23:40;;;;;;;39.53;27.17;;;5.50;99.90;;;;;;4957949;28;20022;-85
2023/12/29 06:26:17;;;;;;;38.85;24.85;;;5.70;99.90;;;;;;4962194;28;20045;-86
2023/12/29 06:28:45;;;;;;;34.65;24.75;;;5.90;99.90;;;;;;4974170;28;20120;-85
2023/12/29 06:31:13;;;;;;;35.72;25.05;;;6.00;99.90;;;;;;4973924;28;20070;-86
2023/12/29 06:33:45;;;;;;;43.30;25.70;;;6.20;99.90;;;;;;4974511;28;20047;-86
2023/12/29 06:36:15;;;;;;;34.03;24.15;;;6.30;99.90;;;;;;4990156;28;20068;-86
2023/12/29 06:38:41;;;;;;;36.50;25.08;;;6.40;99.90;;;;;;4974082;28;20138;-86
2023/12/29 06:41:11;;;;;;;41.20;27.25;;;6.50;99.90;;;;;;4974045;28;20038;-86
2023/12/29 06:43:41;;;;;;;40.40;25.35;;;6.50;99.90;;;;;;4974595;28;20035;-86
2023/12/29 06:46:12;;;;;;;38.08;26.95;;;6.60;99.90;;;;;;4978100;28;20078;-91
2023/12/29 06:48:39;;;;;;;42.83;26.85;;;6.60;99.90;;;;;;4974238;28;20027;-86
2023/12/29 06:51:06;;;;;;;33.78;25.90;;;6.70;99.90;;;;;;4974866;28;20027;-87
2023/12/29 06:53:40;;;;;;;35.13;25.15;;;6.80;99.90;;;;;;4974283;28;20045;-86
2023/12/29 06:56:07;;;;;;;35.13;23.85;;;6.80;99.90;;;;;;4971937;28;20050;-86
2023/12/29 06:58:36;;;;;;;29.30;22.98;;;6.90;99.90;;;;;;4977415;28;20034;-86
2023/12/29 07:01:03;;;;;;;30.33;23.67;;;7.00;99.90;;;;;;4977471;28;20039;-86
2023/12/29 07:03:29;;;;;;;30.52;23.52;;;7.10;99.90;;;;;;4977755;28;20425;-86
2023/12/29 07:05:56;;;;;;;31.80;23.63;;;7.20;99.90;;;;;;4978312;28;20515;-86
2023/12/29 07:08:23;;;;;;;28.73;22.77;;;7.30;99.90;;;;;;4977572;28;20027;-86
2023/12/29 07:10:50;;;;;;;29.48;21.95;;;7.40;99.90;;;;;;4977414;28;20050;-86
2023/12/29 07:13:16;;;;;;;28.65;22.02;;;7.50;99.90;;;;;;4977483;28;20027;-86
2023/12/29 07:15:43;;;;;;;26.85;21.50;;;7.50;99.90;;;;;;4977446;28;20109;-87
2023/12/29 07:18:10;;;;;;;24.95;20.35;;;7.60;99.90;;;;;;4977760;28;20123;-87
2023/12/29 07:20:36;;;;;;;27.88;21.95;;;7.60;99.90;;;;;;4977386;28;20118;-87
2023/12/29 07:23:03;;;;;;;25.77;21.73;;;7.70;99.90;;;;;;4977359;28;20062;-86
2023/12/29 07:25:30;;;;;;;24.75;20.98;;;7.70;99.90;;;;;;4976991;28;20031;-86
2023/12/29 07:27:56;;;;;;;24.10;20.60;;;7.80;99.90;;;;;;4960838;28;20456;-86
2023/12/29 07:30:23;;;;;;;25.00;19.88;;;7.90;99.90;;;;;;4961089;28;20033;-86
2023/12/29 07:32:49;;;;;;;22.80;19.90;;;8.00;99.90;;;;;;4961063;28;20033;-87
2023/12/29 07:35:17;;;;;;;31.25;23.80;;;8.10;99.90;;;;;;4961060;28;20035;-86
2023/12/29 07:37:44;;;;;;;34.65;25.40;;;8.10;99.90;;;;;;4941912;29;20058;-87
2023/12/29 07:40:11;;;;;;;32.20;24.67;;;8.30;99.90;;;;;;4941901;29;20523;-86
2023/12/29 07:42:40;;;;;;;33.13;23.58;;;8.40;99.90;;;;;;4941730;29;20059;-87
2023/12/29 07:45:08;;;;;;;34.08;24.55;;;8.50;99.90;;;;;;4941660;29;20031;-86
2023/12/29 07:47:36;;;;;;;30.60;24.65;;;8.70;99.90;;;;;;4941483;29;20039;-86
2023/12/29 07:50:06;;;;;;;30.20;24.30;;;8.80;99.90;;;;;;4941730;29;20023;-86
2023/12/29 07:52:32;;;;;;;31.58;25.23;;;8.90;99.90;;;;;;4941423;29;20027;-86
2023/12/29 07:54:59;;;;;;;35.22;25.70;;;9.00;99.90;;;;;;4941234;29;20515;-86
2023/12/29 07:57:26;;;;;;;30.13;25.80;;;9.10;99.90;;;;;;4958222;28;20050;-86
2023/12/29 07:59:52;;;;;;;36.13;26.33;;;9.20;99.90;;;;;;4976603;28;20030;-86
2023/12/29 08:02:19;;;;;;;40.97;26.80;;;9.30;99.90;;;;;;4976352;28;20564;-86
2023/12/29 08:04:48;;;;;;;49.92;31.20;;;9.30;99.90;;;;;;4976410;28;20031;-86
2023/12/29 08:07:15;;;;;;;43.00;31.25;;;9.40;99.90;;;;;;4975980;28;20054;-86
2023/12/29 08:09:42;;;;;;;48.63;30.98;;;9.50;99.90;;;;;;4974254;28;20050;-87
2023/12/29 08:12:08;;;;;;;50.88;33.45;;;9.60;99.90;;;;;;4960184;28;20101;-86
2023/12/29 08:14:35;;;;;;;50.17;32.15;;;9.60;99.90;;;;;;4960485;28;20507;-87
2023/12/29 08:17:08;;;;;;;46.05;33.10;;;9.60;99.90;;;;;;4960728;28;20039;-86
2023/12/29 08:19:38;;;;;;;42.87;32.30;;;9.80;99.90;;;;;;4960287;28;20051;-87
2023/12/29 08:22:05;;;;;;;47.30;33.05;;;9.90;99.90;;;;;;4975748;28;20309;-86
2023/12/29 08:24:35;;;;;;;46.92;33.17;;;10.00;99.90;;;;;;4959897;28;20034;-86
2023/12/29 08:27:03;;;;;;;47.45;34.22;;;10.00;99.90;;;;;;4959820;28;20081;-86
2023/12/29 08:29:30;;;;;;;54.50;33.78;;;10.00;99.90;;;;;;4975872;28;20416;-86
2023/12/29 08:31:56;;;;;;;43.47;31.85;;;10.00;99.90;;;;;;4975675;28;20030;-86
2023/12/29 08:34:22;;;;;;;41.83;32.65;;;10.00;99.90;;;;;;4976011;28;20034;-87
2023/12/29 08:36:49;;;;;;;56.92;35.55;;;10.10;99.90;;;;;;4975787;28;20476;-86
2023/12/29 08:39:15;;;;;;;45.85;34.60;;;10.10;99.90;;;;;;4976014;28;20147;-87
2023/12/29 08:41:42;;;;;;;47.28;34.25;;;10.10;99.90;;;;;;4975585;28;20134;-87
2023/12/29 08:44:11;;;;;;;43.17;30.67;;;10.20;99.90;;;;;;4975770;28;20022;-86
2023/12/29 08:46:38;;;;;;;38.13;31.67;;;10.40;99.90;;;;;;4970528;28;20069;-88
2023/12/29 08:49:04;;;;;;;36.90;29.42;;;10.40;99.90;;;;;;4959704;28;20019;-86
2023/12/29 08:51:34;;;;;;;39.30;30.58;;;10.40;99.90;;;;;;4959902;28;20159;-86
2023/12/29 08:54:00;;;;;;;35.90;30.15;;;10.50;99.90;;;;;;4959667;28;20031;-86
2023/12/29 08:56:29;;;;;;;39.65;31.75;;;10.60;99.90;;;;;;4959543;28;20094;-86
2023/12/29 08:58:55;;;;;;;36.60;32.00;;;10.70;99.90;;;;;;4959468;28;20031;-86
2023/12/29 09:01:21;;;;;;;46.25;32.83;;;10.80;99.90;;;;;;4958995;28;20031;-86
2023/12/29 09:03:49;;;;;;;43.67;33.67;;;10.90;99.90;;;;;;4975151;28;20030;-86
2023/12/29 09:06:15;;;;;;;47.28;34.22;;;10.90;99.90;;;;;;4975586;28;20019;-87
2023/12/29 09:08:42;;;;;;;40.90;35.20;;;11.00;99.90;;;;;;4975354;28;20042;-86
2023/12/29 09:11:09;;;;;;;46.72;34.97;;;11.10;99.90;;;;;;4975013;28;20047;-85
2023/12/29 09:13:36;;;;;;;46.22;34.83;;;11.10;99.90;;;;;;4975133;28;20031;-86
2023/12/29 09:16:03;;;;;;;45.65;36.42;;;11.30;99.90;;;;;;4975198;28;20046;-85
2023/12/29 09:18:30;;;;;;;48.47;37.00;;;11.40;99.90;;;;;;4974287;28;20086;-86
2023/12/29 09:20:56;;;;;;;51.42;38.08;;;11.40;99.90;;;;;;4959278;28;20031;-86
2023/12/29 09:23:25;;;;;;;41.70;37.20;;;11.40;99.90;;;;;;4975033;28;20042;-86
2023/12/29 09:25:52;;;;;;;41.97;37.00;;;11.50;99.90;;;;;;4975114;28;20031;-84
2023/12/29 09:28:19;;;;;;;43.35;37.17;;;11.70;99.90;;;;;;4974973;28;20034;-85
2023/12/29 09:30:45;;;;;;;57.22;41.25;;;11.80;99.90;;;;;;4958746;28;20114;-87
2023/12/29 09:33:12;;;;;;;55.47;41.95;;;11.90;99.90;;;;;;4984439;28;20031;-85
2023/12/29 09:35:39;;;;;;;57.53;43.17;;;11.90;99.90;;;;;;4974900;28;20507;-86
2023/12/29 09:38:06;;;;;;;55.70;42.97;;;11.90;99.90;;;;;;4974659;28;20031;-85
2023/12/29 09:40:32;;;;;;;53.47;41.65;;;11.90;99.90;;;;;;4974875;28;20031;-85
2023/12/29 09:43:09;;;;;;;56.78;41.63;;;11.90;99.90;;;;;;4974815;28;20486;-88
2023/12/29 09:45:38;;;;;;;63.30;42.35;;;11.90;99.90;;;;;;4974803;28;20029;-88
2023/12/29 09:48:08;;;;;;;59.30;43.20;;;12.00;99.90;;;;;;4974768;28;20031;-89
2023/12/29 09:50:36;;;;;;;59.28;42.60;;;11.90;99.90;;;;;;4974572;28;20057;-88
2023/12/29 09:53:03;;;;;;;61.28;42.65;;;11.90;99.90;;;;;;4974754;28;20117;-86
2023/12/29 09:55:32;;;;;;;52.05;39.50;;;11.90;99.90;;;;;;4974582;28;20059;-85
2023/12/29 09:58:00;;;;;;;45.03;37.60;;;11.90;99.90;;;;;;4939285;29;20023;-85
2023/12/29 10:00:27;;;;;;;48.33;37.55;;;12.00;99.90;;;;;;4939052;29;20393;-86
2023/12/29 10:03:04;;;;;;;48.53;37.08;;;12.10;99.90;;;;;;4939038;29;20031;-85
2023/12/29 10:05:31;;;;;;;50.28;38.30;;;12.20;99.90;;;;;;4939365;29;20424;-86
2023/12/29 10:08:03;;;;;;;47.13;38.38;;;12.10;99.90;;;;;;4939133;29;20050;-86
2023/12/29 10:10:31;;;;;;;44.45;36.92;;;12.00;99.90;;;;;;4938940;29;20168;-85
2023/12/29 10:12:58;;;;;;;46.78;39.25;;;12.00;99.90;;;;;;4944414;28;20049;-86
2023/12/29 10:15:35;;;;;;;45.40;39.03;;;12.10;99.90;;;;;;4958260;28;20031;-87
2023/12/29 10:18:11;;;;;;;52.58;41.35;;;12.10;99.90;;;;;;4955099;29;20042;-86
2023/12/29 10:20:52;;;;;;;54.13;40.38;;;12.20;99.90;;;;;;4939062;29;20039;-86
2023/12/29 10:23:29;;;;;;;50.50;40.97;;;12.30;99.90;;;;;;4954842;29;20453;-86
2023/12/29 10:25:57;;;;;;;51.67;39.63;;;12.50;99.90;;;;;;4955103;29;20478;-87
2023/12/29 10:28:23;;;;;;;53.63;40.83;;;12.50;99.90;;;;;;4954393;28;20122;-87
2023/12/29 10:30:50;;;;;;;52.08;40.63;;;12.70;99.90;;;;;;4954938;29;20074;-88
2023/12/29 10:33:21;;;;;;;50.42;39.05;;;12.90;99.90;;;;;;4954727;29;20030;-87
2023/12/29 10:36:07;;;;;;;48.85;37.83;;;12.90;99.90;;;;;;4954923;29;20031;-86
2023/12/29 10:38:34;;;;;;;47.55;35.95;;;13.00;99.90;;;;;;4954798;29;20122;-88
2023/12/29 10:41:14;;;;;;;44.38;35.45;;;13.20;99.90;;;;;;4954959;29;20035;-88
2023/12/29 10:43:42;;;;;;;43.45;32.92;;;13.10;99.90;;;;;;4954973;29;20054;-88
2023/12/29 10:46:11;;;;;;;38.50;32.33;;;13.20;99.90;;;;;;4955059;29;20440;-89
2023/12/29 10:48:38;;;;;;;42.15;34.10;;;13.40;99.90;;;;;;4954972;29;20031;-88
2023/12/29 10:51:05;;;;;;;44.90;34.35;;;13.40;99.90;;;;;;4954674;29;20027;-88
2023/12/29 10:53:38;;;;;;;43.50;31.95;;;13.60;99.90;;;;;;4972480;28;20034;-88
2023/12/29 10:56:22;;;;;;;40.72;32.28;;;13.60;99.90;;;;;;4973956;28;20026;-88
2023/12/29 10:59:02;;;;;;;41.38;30.25;;;13.80;99.90;;;;;;4974076;28;20117;-89
2023/12/29 11:01:34;;;;;;;35.65;31.50;;;13.90;99.90;;;;;;4974070;28;20504;-90
2023/12/29 11:04:03;;;;;;;40.58;31.95;;;13.80;99.90;;;;;;4976460;28;20060;-90
2023/12/29 11:06:40;;;;;;;33.35;29.40;;;13.90;99.90;;;;;;4974135;28;20118;-89
2023/12/29 11:09:06;;;;;;;35.22;29.27;;;13.90;99.90;;;;;;4973953;28;20050;-89
2023/12/29 11:11:36;;;;;;;34.33;28.90;;;14.10;99.90;;;;;;4973851;28;20469;-89
2023/12/29 11:14:03;;;;;;;39.75;30.30;;;14.10;99.90;;;;;;4973931;28;20057;-89
2023/12/29 11:16:32;;;;;;;31.85;27.45;;;14.30;99.90;;;;;;4973653;28;20041;-89
2023/12/29 11:18:58;;;;;;;33.45;27.33;;;14.20;99.90;;;;;;4954454;29;20063;-90
2023/12/29 11:21:27;;;;;;;34.22;28.38;;;14.20;99.90;;;;;;4954528;29;20393;-89
2023/12/29 11:23:54;;;;;;;38.78;30.67;;;14.20;99.90;;;;;;4954428;29;20488;-87
2023/12/29 11:26:21;;;;;;;38.60;28.48;;;14.30;99.90;;;;;;4954596;29;20041;-90
2023/12/29 11:28:50;;;;;;;37.28;28.85;;;14.40;99.90;;;;;;4954859;29;20384;-90
2023/12/29 11:31:18;;;;;;;34.97;28.20;;;14.40;99.90;;;;;;4954115;29;20032;-86
2023/12/29 11:33:57;;;;;;;36.47;28.63;;;14.40;99.90;;;;;;4954271;29;20031;-88
2023/12/29 11:36:33;;;;;;;35.10;27.65;;;14.40;99.90;;;;;;4957448;28;20023;-87
2023/12/29 11:39:14;;;;;;;40.63;28.40;;;14.40;99.90;;;;;;4957316;28;20035;-89
2023/12/29 11:42:27;;;;;;;32.60;28.05;;;14.50;99.90;;;;;;4975550;28;20035;-91
2023/12/29 11:44:54;;;;;;;32.50;25.35;;;14.50;99.90;;;;;;4970198;28;20070;-89
2023/12/29 11:47:37;;;;;;;28.60;25.40;;;14.50;99.90;;;;;;4961286;28;20487;-90
2023/12/29 11:50:05;;;;;;;28.25;25.35;;;14.60;99.90;;;;;;4961082;28;20519;-90
2023/12/29 11:52:40;;;;;;;31.23;26.10;;;14.60;99.90;;;;;;4961126;28;20034;-91
2023/12/29 11:55:19;;;;;;;30.52;23.92;;;14.60;99.90;;;;;;4961189;28;20026;-91
2023/12/29 11:57:46;;;;;;;27.52;23.77;;;14.50;99.90;;;;;;4961502;28;20062;-91
2023/12/29 12:00:13;;;;;;;29.83;24.23;;;14.40;99.90;;;;;;4960948;28;20058;-87
2023/12/29 12:02:41;;;;;;;26.25;23.42;;;14.40;99.90;;;;;;4960899;28;20044;-90
2023/12/29 12:05:10;;;;;;;25.23;22.52;;;14.40;99.90;;;;;;4961166;28;20031;-90
2023/12/29 12:07:46;;;;;;;24.58;21.50;;;14.40;99.90;;;;;;4960999;28;20031;-90
2023/12/29 12:10:26;;;;;;;23.45;21.00;;;14.40;99.90;;;;;;4960995;28;20089;-91
2023/12/29 12:12:56;;;;;;;24.80;22.17;;;14.40;99.90;;;;;;4977132;28;20055;-91
2023/12/29 12:15:29;;;;;;;25.80;23.17;;;14.60;99.90;;;;;;4975670;28;20027;-90
2023/12/29 12:17:57;;;;;;;25.20;22.70;;;14.60;99.90;;;;;;4977476;28;20045;-90
2023/12/29 12:20:24;;;;;;;25.83;22.63;;;14.70;99.90;;;;;;4965962;28;20023;-92
2023/12/29 12:23:05;;;;;;;25.40;22.10;;;14.80;99.90;;;;;;4981980;28;20071;-92
2023/12/29 12:25:37;;;;;;;25.33;22.75;;;14.80;99.90;;;;;;4978538;28;20039;-92
2023/12/29 12:28:11;;;;;;;26.17;22.15;;;14.80;99.90;;;;;;4977893;28;20034;-91
2023/12/29 12:30:38;;;;;;;31.40;23.50;;;14.70;99.90;;;;;;4980810;28;20061;-92
2023/12/29 12:33:06;;;;;;;25.38;22.73;;;14.70;99.90;;;;;;4980843;28;20046;-90
2023/12/29 12:35:37;;;;;;;24.10;21.80;;;14.70;99.90;;;;;;4981510;28;20127;-91
2023/12/29 12:38:22;;;;;;;27.45;22.63;;;14.70;99.90;;;;;;4981171;28;20031;-91
2023/12/29 12:40:50;;;;;;;24.52;21.92;;;14.60;99.90;;;;;;4979631;28;20031;-92